createdAt,value
2018-09-30T00:02:03.336Z,62.95
2018-09-30T00:04:32.879Z,62.91
2018-09-30T00:07:02.541Z,63.42
2018-09-30T00:09:32.623Z,63.54
2018-09-30T00:12:03.441Z,63.38
2018-09-30T00:14:32.933Z,63.38
2018-09-30T00:17:02.387Z,63.67
2018-09-30T00:19:31.960Z,63.88
2018-09-30T00:22:01.393Z,63.64
2018-09-30T00:24:35.985Z,63.60
2018-09-30T00:27:22.238Z,64.16
2018-09-30T00:29:51.817Z,64.29
2018-09-30T00:32:21.343Z,64.08
2018-09-30T00:34:50.892Z,63.62
2018-09-30T00:37:20.354Z,63.58
2018-09-30T00:39:49.909Z,63.43
2018-09-30T00:42:19.710Z,63.35
2018-09-30T00:44:49.300Z,63.31
2018-09-30T00:47:18.808Z,63.61
2018-09-30T00:49:48.531Z,63.71
2018-09-30T00:52:18.020Z,63.65
2018-09-30T00:54:47.743Z,63.51
2018-09-30T00:57:17.205Z,63.62
2018-09-30T00:59:46.672Z,63.35
2018-09-30T01:02:16.360Z,63.38
2018-09-30T01:04:45.922Z,63.59
2018-09-30T01:07:15.372Z,63.70
2018-09-30T01:09:44.933Z,64.08
2018-09-30T01:12:14.681Z,64.11
2018-09-30T01:14:44.235Z,64.18
2018-09-30T01:17:13.696Z,64.23
2018-09-30T01:19:43.468Z,64.54
2018-09-30T01:22:12.913Z,65.36
2018-09-30T01:24:42.444Z,64.75
2018-09-30T01:27:11.919Z,65.44
2018-09-30T01:29:41.468Z,65.63
2018-09-30T01:32:10.895Z,65.59
2018-09-30T01:34:40.431Z,65.55
2018-09-30T01:37:10.341Z,65.55
2018-09-30T01:39:39.907Z,65.02
2018-09-30T01:42:09.554Z,64.92
2018-09-30T01:44:39.121Z,64.58
2018-09-30T01:47:08.568Z,64.44
2018-09-30T01:49:38.122Z,63.93
2018-09-30T01:52:18.907Z,63.70
2018-09-30T01:54:48.746Z,63.67
2018-09-30T01:57:18.309Z,64.97
2018-09-30T01:59:47.859Z,64.49
2018-09-30T02:02:17.614Z,63.90
2018-09-30T02:04:47.378Z,63.80
2018-09-30T02:07:17.086Z,63.75
2018-09-30T02:09:46.803Z,64.35
2018-09-30T02:12:16.504Z,64.42
2018-09-30T02:14:46.048Z,64.22
2018-09-30T02:17:15.820Z,64.34
2018-09-30T02:19:45.374Z,64.87
2018-09-30T02:22:14.852Z,65.63
2018-09-30T02:24:44.537Z,65.56
2018-09-30T02:27:14.349Z,65.24
2018-09-30T02:29:43.984Z,65.13
2018-09-30T02:32:13.766Z,64.97
2018-09-30T02:34:43.475Z,64.77
2018-09-30T02:37:13.016Z,65.17
2018-09-30T02:39:42.605Z,65.42
2018-09-30T02:42:12.805Z,65.29
2018-09-30T02:44:42.469Z,65.15
2018-09-30T02:47:11.943Z,65.16
2018-09-30T02:49:41.738Z,64.80
2018-09-30T02:52:11.160Z,64.63
2018-09-30T02:54:40.683Z,64.66
2018-09-30T02:57:10.192Z,64.98
2018-09-30T02:59:39.954Z,65.60
2018-09-30T03:02:09.370Z,65.11
2018-09-30T03:04:38.907Z,64.70
2018-09-30T03:07:13.780Z,64.75
2018-09-30T03:09:43.940Z,64.59
2018-09-30T03:12:13.449Z,64.86
2018-09-30T03:14:42.996Z,64.83
2018-09-30T03:17:13.508Z,64.93
2018-09-30T03:19:43.003Z,65.06
2018-09-30T03:22:12.657Z,64.56
2018-09-30T03:24:42.264Z,64.87
2018-09-30T03:27:11.881Z,65.00
2018-09-30T03:29:41.579Z,64.91
2018-09-30T03:32:11.020Z,64.38
2018-09-30T03:34:40.799Z,64.83
2018-09-30T03:37:10.565Z,65.05
2018-09-30T03:39:46.605Z,65.14
2018-09-30T03:42:16.369Z,65.73
2018-09-30T03:44:46.093Z,65.54
2018-09-30T03:47:16.597Z,65.21
2018-09-30T03:49:46.094Z,65.06
2018-09-30T03:52:15.596Z,65.43
2018-09-30T03:54:45.121Z,64.66
2018-09-30T03:57:14.624Z,65.29
2018-09-30T03:59:44.064Z,65.38
2018-09-30T04:02:13.631Z,65.46
2018-09-30T04:04:43.392Z,65.57
2018-09-30T04:07:12.827Z,65.34
2018-09-30T04:09:42.576Z,65.28
2018-09-30T04:12:12.010Z,65.12
2018-09-30T04:14:41.427Z,65.57
2018-09-30T04:17:11.006Z,65.33
2018-09-30T04:19:40.403Z,65.35
2018-09-30T04:22:09.909Z,65.59
2018-09-30T04:24:39.476Z,65.61
2018-09-30T04:27:09.089Z,65.61
2018-09-30T04:29:38.692Z,65.47
2018-09-30T04:32:08.208Z,65.80
2018-09-30T04:34:37.651Z,66.09
2018-09-30T04:37:07.244Z,65.68
2018-09-30T04:39:36.705Z,65.44
2018-09-30T04:42:06.627Z,65.84
2018-09-30T04:44:36.095Z,65.93
2018-09-30T04:47:05.677Z,65.89
2018-09-30T04:49:35.100Z,66.28
2018-09-30T04:52:04.557Z,65.72
2018-09-30T04:54:34.013Z,66.13
2018-09-30T04:57:03.441Z,66.03
2018-09-30T04:59:33.025Z,65.83
2018-09-30T05:02:02.604Z,65.92
2018-09-30T05:04:32.047Z,66.41
2018-09-30T05:07:01.803Z,67.03
2018-09-30T05:09:31.370Z,66.96
2018-09-30T05:12:01.189Z,66.62
2018-09-30T05:14:30.691Z,66.51
2018-09-30T05:17:00.393Z,66.06
2018-09-30T05:19:29.930Z,66.33
2018-09-30T05:21:59.464Z,65.88
2018-09-30T05:24:29.174Z,65.94
2018-09-30T05:26:58.716Z,66.91
2018-09-30T05:29:28.272Z,66.59
2018-09-30T05:31:57.755Z,66.13
2018-09-30T05:34:27.614Z,66.18
2018-09-30T05:36:57.149Z,65.78
2018-09-30T05:39:26.854Z,65.90
2018-09-30T05:41:56.477Z,65.77
2018-09-30T05:44:26.270Z,65.84
2018-09-30T05:46:55.864Z,66.07
2018-09-30T05:49:25.306Z,66.22
2018-09-30T05:51:54.842Z,66.30
2018-09-30T05:54:24.344Z,66.63
2018-09-30T05:56:53.897Z,66.91
2018-09-30T05:59:23.323Z,66.76
2018-09-30T06:01:52.872Z,66.38
2018-09-30T06:04:22.410Z,66.97
2018-09-30T06:06:53.008Z,67.09
2018-09-30T06:09:22.701Z,67.08
2018-09-30T06:11:52.264Z,67.00
2018-09-30T06:14:22.567Z,67.15
2018-09-30T06:16:52.383Z,67.06
2018-09-30T06:19:21.878Z,67.00
2018-09-30T06:21:51.345Z,67.38
2018-09-30T06:24:21.000Z,67.06
2018-09-30T06:26:51.119Z,67.20
2018-09-30T06:29:20.631Z,67.45
2018-09-30T06:31:50.245Z,67.24
2018-09-30T06:34:19.957Z,67.31
2018-09-30T06:36:49.549Z,66.52
2018-09-30T06:39:19.020Z,65.48
2018-09-30T06:41:48.571Z,64.55
2018-09-30T06:44:18.267Z,64.14
2018-09-30T06:46:47.884Z,63.23
2018-09-30T06:49:17.474Z,62.07
2018-09-30T06:51:47.055Z,63.80
2018-09-30T06:54:16.608Z,63.96
2018-09-30T06:56:46.400Z,63.21
2018-09-30T06:59:16.208Z,64.01
2018-09-30T07:01:46.157Z,64.28
2018-09-30T07:04:15.932Z,64.46
2018-09-30T07:06:45.525Z,64.81
2018-09-30T07:09:15.102Z,64.77
2018-09-30T07:11:44.653Z,64.83
2018-09-30T07:14:14.256Z,64.96
2018-09-30T07:16:43.790Z,63.23
2018-09-30T07:19:13.367Z,61.78
2018-09-30T07:21:43.282Z,60.57
2018-09-30T07:24:12.989Z,58.95
2018-09-30T07:26:42.806Z,58.25
2018-09-30T07:29:12.583Z,57.05
2018-09-30T07:31:42.043Z,57.26
2018-09-30T07:34:11.726Z,56.74
2018-09-30T07:36:41.575Z,57.43
2018-09-30T07:39:11.887Z,57.03
2018-09-30T07:41:41.568Z,56.78
2018-09-30T07:44:12.061Z,56.70
2018-09-30T07:46:41.570Z,56.48
2018-09-30T07:49:11.115Z,55.97
2018-09-30T07:51:40.710Z,54.61
2018-09-30T07:54:10.369Z,52.59
2018-09-30T07:56:39.827Z,52.31
2018-09-30T07:59:09.691Z,52.67
2018-09-30T08:01:39.199Z,52.57
2018-09-30T08:04:09.063Z,51.65
2018-09-30T08:06:38.769Z,52.30
2018-09-30T08:09:09.229Z,52.28
2018-09-30T08:11:38.996Z,51.53
2018-09-30T08:14:08.808Z,50.26
2018-09-30T08:16:38.930Z,49.99
2018-09-30T08:19:08.428Z,49.75
2018-09-30T08:21:38.138Z,48.90
2018-09-30T08:24:08.101Z,49.92
2018-09-30T08:26:38.039Z,49.50
2018-09-30T08:29:07.811Z,49.94
2018-09-30T08:31:37.485Z,46.38
2018-09-30T08:34:09.140Z,45.24
2018-09-30T08:36:39.770Z,47.23
2018-09-30T08:39:10.208Z,42.63
2018-09-30T08:41:39.906Z,42.67
2018-09-30T08:44:09.636Z,39.37
2018-09-30T08:46:39.242Z,38.64
2018-09-30T08:49:08.940Z,37.27
2018-09-30T08:51:38.458Z,35.83
2018-09-30T08:54:08.276Z,35.76
2018-09-30T08:56:37.750Z,34.29
2018-09-30T08:59:07.562Z,35.49
2018-09-30T09:01:37.108Z,36.93
2018-09-30T09:04:06.700Z,35.08
2018-09-30T09:06:36.192Z,33.41
2018-09-30T09:09:11.620Z,32.77
2018-09-30T09:11:41.276Z,33.33
2018-09-30T09:14:10.940Z,33.43
2018-09-30T09:16:40.500Z,32.51
2018-09-30T09:19:10.152Z,34.51
2018-09-30T09:21:39.708Z,31.68
2018-09-30T09:24:09.258Z,31.17
2018-09-30T09:26:38.868Z,32.32
2018-09-30T09:29:08.412Z,32.11
2018-09-30T09:31:38.203Z,30.49
2018-09-30T09:34:08.100Z,32.63
2018-09-30T09:36:37.628Z,33.58
2018-09-30T09:39:09.604Z,33.11
2018-09-30T09:41:39.407Z,30.35
2018-09-30T09:44:09.183Z,30.73
2018-09-30T09:46:38.966Z,31.15
2018-09-30T09:49:08.416Z,31.08
2018-09-30T09:51:38.113Z,30.11
2018-09-30T09:54:08.129Z,29.59
2018-09-30T09:56:37.707Z,30.29
2018-09-30T09:59:07.439Z,29.17
2018-09-30T10:01:36.896Z,30.86
2018-09-30T10:04:06.552Z,30.32
2018-09-30T10:06:36.012Z,29.83
2018-09-30T10:09:06.764Z,31.47
2018-09-30T10:11:36.394Z,31.61
2018-09-30T10:14:05.997Z,32.81
2018-09-30T10:16:35.501Z,31.38
2018-09-30T10:19:04.941Z,31.21
2018-09-30T10:21:34.818Z,31.25
2018-09-30T10:24:04.423Z,28.39
2018-09-30T10:26:34.029Z,28.57
2018-09-30T10:29:03.436Z,29.18
2018-09-30T10:31:32.904Z,29.85
2018-09-30T10:34:02.465Z,29.62
2018-09-30T10:36:32.363Z,28.26
2018-09-30T10:39:02.004Z,27.26
2018-09-30T10:41:31.436Z,29.00
2018-09-30T10:44:01.277Z,28.56
2018-09-30T10:46:30.791Z,29.69
2018-09-30T10:49:00.390Z,30.43
2018-09-30T10:51:30.096Z,28.47
2018-09-30T10:53:59.836Z,29.76
2018-09-30T10:56:29.310Z,29.74
2018-09-30T10:58:58.743Z,27.69
2018-09-30T11:01:29.184Z,28.87
2018-09-30T11:03:59.104Z,29.00
2018-09-30T11:06:28.644Z,30.15
2018-09-30T11:08:58.084Z,28.13
2018-09-30T11:11:27.546Z,28.89
2018-09-30T11:13:57.024Z,29.29
2018-09-30T11:16:26.563Z,26.92
2018-09-30T11:18:56.024Z,27.09
2018-09-30T11:21:25.432Z,28.47
2018-09-30T11:23:54.920Z,28.03
2018-09-30T11:26:24.385Z,27.09
2018-09-30T11:28:53.836Z,26.66
2018-09-30T11:31:23.453Z,24.97
2018-09-30T11:33:53.227Z,26.21
2018-09-30T11:36:22.849Z,26.60
2018-09-30T11:38:52.275Z,28.71
2018-09-30T11:41:21.827Z,27.61
2018-09-30T11:43:51.287Z,25.59
2018-09-30T11:46:20.841Z,25.89
2018-09-30T11:48:50.330Z,25.59
2018-09-30T11:51:19.848Z,25.24
2018-09-30T11:53:49.329Z,25.07
2018-09-30T11:56:18.860Z,24.62
2018-09-30T11:58:48.453Z,25.50
2018-09-30T12:01:17.980Z,25.90
2018-09-30T12:03:47.458Z,25.33
2018-09-30T12:06:17.000Z,25.44
2018-09-30T12:08:46.468Z,25.44
2018-09-30T12:11:15.996Z,25.91
2018-09-30T12:13:45.451Z,24.94
2018-09-30T12:16:14.988Z,23.57
2018-09-30T12:18:44.472Z,25.49
2018-09-30T12:21:14.033Z,24.85
2018-09-30T12:23:43.460Z,24.19
2018-09-30T12:26:12.928Z,25.82
2018-09-30T12:28:42.412Z,24.91
2018-09-30T12:31:12.108Z,26.35
2018-09-30T12:33:41.606Z,24.27
2018-09-30T12:36:11.184Z,25.05
2018-09-30T12:38:40.614Z,25.75
2018-09-30T12:41:10.155Z,25.62
2018-09-30T12:43:39.605Z,24.90
2018-09-30T12:46:09.152Z,25.01
2018-09-30T12:48:38.609Z,26.95
2018-09-30T12:51:08.088Z,25.80
2018-09-30T12:53:37.511Z,25.80
2018-09-30T12:56:07.021Z,25.29
2018-09-30T12:58:36.471Z,25.47
2018-09-30T13:01:06.159Z,25.58
2018-09-30T13:03:35.683Z,24.00
2018-09-30T13:06:05.192Z,25.14
2018-09-30T13:08:34.656Z,24.07
2018-09-30T13:11:04.240Z,24.52
2018-09-30T13:13:33.785Z,24.25
2018-09-30T13:16:03.520Z,24.11
2018-09-30T13:18:33.203Z,24.08
2018-09-30T13:21:03.038Z,24.36
2018-09-30T13:23:32.397Z,25.05
2018-09-30T13:26:01.893Z,25.04
2018-09-30T13:28:31.628Z,23.71
2018-09-30T13:31:01.089Z,23.43
2018-09-30T13:33:30.576Z,23.56
2018-09-30T13:36:00.141Z,25.08
2018-09-30T13:38:29.584Z,25.23
2018-09-30T13:40:59.344Z,24.89
2018-09-30T13:43:28.859Z,23.28
2018-09-30T13:45:58.379Z,23.73
2018-09-30T13:48:28.071Z,23.72
2018-09-30T13:50:57.630Z,23.55
2018-09-30T13:53:29.230Z,23.37
2018-09-30T13:55:58.940Z,23.67
2018-09-30T13:58:28.403Z,23.32
2018-09-30T14:00:57.916Z,23.07
2018-09-30T14:03:27.379Z,22.97
2018-09-30T14:05:56.920Z,23.24
2018-09-30T14:08:26.382Z,23.79
2018-09-30T14:10:55.792Z,23.64
2018-09-30T14:13:25.470Z,23.88
2018-09-30T14:15:54.907Z,23.65
2018-09-30T14:18:24.395Z,25.48
2018-09-30T14:20:53.838Z,22.28
2018-09-30T14:23:23.304Z,23.95
2018-09-30T14:25:52.803Z,23.11
2018-09-30T14:28:22.256Z,24.33
2018-09-30T14:30:52.208Z,23.66
2018-09-30T14:33:21.616Z,23.74
2018-09-30T14:35:51.173Z,23.11
2018-09-30T14:38:20.783Z,25.02
2018-09-30T14:40:50.632Z,23.42
2018-09-30T14:43:20.112Z,24.53
2018-09-30T14:45:49.726Z,23.69
2018-09-30T14:48:19.318Z,23.98
2018-09-30T14:50:48.739Z,23.26
2018-09-30T14:53:18.224Z,23.92
2018-09-30T14:55:47.699Z,22.71
2018-09-30T14:58:17.116Z,22.36
2018-09-30T15:00:46.636Z,23.61
2018-09-30T15:03:16.123Z,22.85
2018-09-30T15:05:45.879Z,25.82
2018-09-30T15:08:15.521Z,23.87
2018-09-30T15:10:44.989Z,23.46
2018-09-30T15:13:14.494Z,23.12
2018-09-30T15:15:43.952Z,22.85
2018-09-30T15:18:13.379Z,23.75
2018-09-30T15:20:42.856Z,23.91
2018-09-30T15:23:12.455Z,24.35
2018-09-30T15:25:42.024Z,23.81
2018-09-30T15:28:11.481Z,24.55
2018-09-30T15:30:41.238Z,23.19
2018-09-30T15:33:10.940Z,23.08
2018-09-30T15:35:40.364Z,24.70
2018-09-30T15:38:09.905Z,24.98
2018-09-30T15:40:39.459Z,22.49
2018-09-30T15:43:08.960Z,22.85
2018-09-30T15:45:38.425Z,22.99
2018-09-30T15:48:08.032Z,24.74
2018-09-30T15:50:37.565Z,23.61
2018-09-30T15:53:07.227Z,23.02
2018-09-30T15:55:36.652Z,23.86
2018-09-30T15:58:06.201Z,20.47
2018-09-30T16:00:35.709Z,20.91
2018-09-30T16:03:06.140Z,23.40
2018-09-30T16:05:36.049Z,23.02
2018-09-30T16:08:05.742Z,23.48
2018-09-30T16:10:35.525Z,23.50
2018-09-30T16:13:05.103Z,24.00
2018-09-30T16:15:35.541Z,24.72
2018-09-30T16:18:05.006Z,25.13
2018-09-30T16:20:34.496Z,25.38
2018-09-30T16:23:04.852Z,26.44
2018-09-30T16:25:34.327Z,26.73
2018-09-30T16:28:03.855Z,29.36
2018-09-30T16:30:33.534Z,30.28
2018-09-30T16:33:03.045Z,31.54
2018-09-30T16:35:32.537Z,31.02
2018-09-30T16:38:02.080Z,32.02
2018-09-30T16:40:33.363Z,33.10
2018-09-30T16:43:02.916Z,34.51
2018-09-30T16:45:33.188Z,35.03
2018-09-30T16:48:02.656Z,35.99
2018-09-30T16:50:32.252Z,35.55
2018-09-30T16:53:01.943Z,35.96
2018-09-30T16:55:31.655Z,36.47
2018-09-30T16:58:02.196Z,37.57
2018-09-30T17:00:32.559Z,38.90
2018-09-30T17:03:02.134Z,37.49
2018-09-30T17:05:31.620Z,38.67
2018-09-30T17:08:01.144Z,38.48
2018-09-30T17:10:30.662Z,39.69
2018-09-30T17:13:00.186Z,40.23
2018-09-30T17:15:29.632Z,39.98
2018-09-30T17:17:59.191Z,39.11
2018-09-30T17:20:29.815Z,40.60
2018-09-30T17:22:59.352Z,41.09
2018-09-30T17:25:28.804Z,41.61
2018-09-30T17:27:58.899Z,42.20
2018-09-30T17:30:28.431Z,42.45
2018-09-30T17:32:57.951Z,43.07
2018-09-30T17:35:27.461Z,43.84
2018-09-30T17:37:57.041Z,44.95
2018-09-30T17:40:26.452Z,44.65
2018-09-30T17:42:56.430Z,45.67
2018-09-30T17:45:25.880Z,45.92
2018-09-30T17:47:55.660Z,44.83
2018-09-30T17:50:25.384Z,45.49
2018-09-30T17:52:55.024Z,46.10
2018-09-30T17:55:24.670Z,45.82
2018-09-30T17:57:54.189Z,46.30
2018-09-30T18:00:23.883Z,46.95
2018-09-30T18:02:53.722Z,47.14
2018-09-30T18:05:23.623Z,46.93
2018-09-30T18:07:53.642Z,47.31
2018-09-30T18:10:23.444Z,48.41
2018-09-30T18:12:53.437Z,48.31
2018-09-30T18:15:23.077Z,48.74
2018-09-30T18:17:52.996Z,48.76
2018-09-30T18:20:24.446Z,49.04
2018-09-30T18:22:54.089Z,48.36
2018-09-30T18:25:23.677Z,48.17
2018-09-30T18:27:53.273Z,46.30
2018-09-30T18:30:22.745Z,45.63
2018-09-30T18:32:53.037Z,45.98
2018-09-30T18:35:22.781Z,44.78
2018-09-30T18:37:53.411Z,47.59
2018-09-30T18:40:23.032Z,48.83
2018-09-30T18:42:53.018Z,48.46
2018-09-30T18:45:22.850Z,48.57
2018-09-30T18:47:52.337Z,48.19
2018-09-30T18:50:21.941Z,47.51
2018-09-30T18:52:51.500Z,47.99
2018-09-30T18:55:21.274Z,47.34
2018-09-30T18:57:50.896Z,47.55
2018-09-30T19:00:20.588Z,48.09
2018-09-30T19:02:50.351Z,47.35
2018-09-30T19:05:20.052Z,47.48
2018-09-30T19:07:49.817Z,48.21
2018-09-30T19:10:19.595Z,48.58
2018-09-30T19:12:49.343Z,48.14
2018-09-30T19:15:18.843Z,48.40
2018-09-30T19:17:49.190Z,48.27
2018-09-30T19:20:19.648Z,49.48
2018-09-30T19:22:50.709Z,50.11
2018-09-30T19:25:20.452Z,50.56
2018-09-30T19:27:50.363Z,50.31
2018-09-30T19:30:20.068Z,50.70
2018-09-30T19:32:49.879Z,51.05
2018-09-30T19:35:19.596Z,51.41
2018-09-30T19:37:49.302Z,51.93
2018-09-30T19:40:19.008Z,52.39
2018-09-30T19:42:48.755Z,53.15
2018-09-30T19:45:18.328Z,53.41
2018-09-30T19:47:48.135Z,53.29
2018-09-30T19:50:17.615Z,53.23
2018-09-30T19:52:47.168Z,53.01
2018-09-30T19:55:17.756Z,52.94
2018-09-30T19:57:47.379Z,52.92
2018-09-30T20:00:16.901Z,52.86
2018-09-30T20:02:46.409Z,52.68
2018-09-30T20:05:15.923Z,51.98
2018-09-30T20:07:45.504Z,51.49
2018-09-30T20:10:14.983Z,51.04
2018-09-30T20:12:44.814Z,51.34
2018-09-30T20:15:14.297Z,50.47
2018-09-30T20:17:44.131Z,50.40
2018-09-30T20:20:13.795Z,50.87
2018-09-30T20:22:43.243Z,51.57
2018-09-30T20:25:12.776Z,51.54
2018-09-30T20:27:42.327Z,51.44
2018-09-30T20:30:11.859Z,52.35
2018-09-30T20:32:41.463Z,52.01
2018-09-30T20:35:11.108Z,52.27
2018-09-30T20:37:40.984Z,52.42
2018-09-30T20:40:10.487Z,52.39
2018-09-30T20:42:40.212Z,53.04
2018-09-30T20:45:09.853Z,53.86
2018-09-30T20:47:39.373Z,53.71
2018-09-30T20:50:08.861Z,53.55
2018-09-30T20:52:38.357Z,53.55
2018-09-30T20:55:07.868Z,53.33
2018-09-30T20:57:37.409Z,54.83
2018-09-30T21:00:06.876Z,53.85
2018-09-30T21:02:36.408Z,54.43
2018-09-30T21:07:13.349Z,54.41
2018-09-30T21:09:43.034Z,54.23
2018-09-30T21:12:12.846Z,54.69
2018-09-30T21:14:45.824Z,55.33
2018-09-30T21:17:16.840Z,55.91
2018-09-30T21:19:47.604Z,55.68
2018-09-30T21:22:17.209Z,55.51
2018-09-30T21:24:46.820Z,55.67
2018-09-30T21:27:16.480Z,55.96
2018-09-30T21:29:46.238Z,55.92
2018-09-30T21:32:15.708Z,55.72
2018-09-30T21:34:45.868Z,55.98
2018-09-30T21:37:15.497Z,56.08
2018-09-30T21:39:45.178Z,56.18
2018-09-30T21:42:14.681Z,55.74
2018-09-30T21:44:44.290Z,54.72
2018-09-30T21:47:13.751Z,54.77
2018-09-30T21:49:43.499Z,55.38
2018-09-30T21:52:13.004Z,56.36
2018-09-30T21:54:43.328Z,56.02
2018-09-30T21:57:13.199Z,55.85
2018-09-30T21:59:42.764Z,55.30
2018-09-30T22:02:12.351Z,55.41
2018-09-30T22:04:41.964Z,55.79
2018-09-30T22:07:12.595Z,55.95
2018-09-30T22:09:42.401Z,55.95
2018-09-30T22:12:12.026Z,56.61
2018-09-30T22:14:41.848Z,56.40
2018-09-30T22:17:11.996Z,56.22
2018-09-30T22:19:41.851Z,56.66
2018-09-30T22:22:11.398Z,56.50
2018-09-30T22:24:40.976Z,56.03
2018-09-30T22:27:10.638Z,56.15
2018-09-30T22:29:40.170Z,56.65
2018-09-30T22:32:09.647Z,56.08
2018-09-30T22:34:39.288Z,56.39
2018-09-30T22:37:08.811Z,56.79
2018-09-30T22:39:38.316Z,56.71
2018-09-30T22:42:08.023Z,56.88
2018-09-30T22:44:37.640Z,57.17
2018-09-30T22:47:07.525Z,57.24
2018-09-30T22:49:37.563Z,57.44
2018-09-30T22:52:07.516Z,57.52
2018-09-30T22:54:37.132Z,57.79
2018-09-30T22:57:06.950Z,57.93
2018-09-30T22:59:36.537Z,57.70
2018-09-30T23:02:06.470Z,57.53
2018-09-30T23:04:36.072Z,57.53
2018-09-30T23:07:05.672Z,57.67
2018-09-30T23:09:35.521Z,57.96
2018-09-30T23:12:05.230Z,57.92
2018-09-30T23:14:34.940Z,57.96
2018-09-30T23:17:04.473Z,57.20
2018-09-30T23:19:34.159Z,58.08
2018-09-30T23:22:03.703Z,58.40
2018-09-30T23:24:33.169Z,58.86
2018-09-30T23:27:02.924Z,58.47
2018-09-30T23:29:32.443Z,58.28
2018-09-30T23:32:01.919Z,58.23
2018-09-30T23:34:31.557Z,58.47
2018-09-30T23:37:01.110Z,59.04
2018-09-30T23:39:30.596Z,59.36
2018-09-30T23:42:00.098Z,59.16
2018-09-30T23:44:29.528Z,59.22
2018-09-30T23:46:59.109Z,59.02
2018-09-30T23:49:28.512Z,59.52
2018-09-30T23:51:57.911Z,59.50
2018-09-30T23:54:27.482Z,59.82
2018-09-30T23:56:57.229Z,59.52
2018-09-30T23:59:26.730Z,58.89
